Time;durP1;ratioP1;P1;durP2;ratioP2;P2;SDS_P1;SDS_P2;PMS_P1;PMS_P2;Temp;Humidity;BMP_temperature;BMP_pressure;BME280_temperature;BME280_humidity;BME280_pressure;Samples;Min_cycle;Max_cycle;Signal;HPM_P1;HPM_P2
2022/05/03 00:01:51;;;;;;;2.15;1.55;;;13.80;46.10;;;;;;5039094;28;20068;-81
2022/05/03 00:04:35;;;;;;;3.00;1.58;;;13.80;46.80;;;;;;5057593;28;20548;-81
2022/05/03 00:07:31;;;;;;;2.35;1.50;;;13.70;45.90;;;;;;5052403;28;20040;-81
2022/05/03 00:10:03;;;;;;;2.20;1.40;;;13.70;47.00;;;;;;5027435;28;20045;-82
2022/05/03 00:12:39;;;;;;;1.98;1.50;;;13.60;45.60;;;;;;5053820;28;20043;-81
2022/05/03 00:15:06;;;;;;;2.78;1.58;;;13.60;47.20;;;;;;5037564;28;20131;-82
2022/05/03 00:17:34;;;;;;;2.75;1.52;;;13.50;46.00;;;;;;5064100;28;20516;-82
2022/05/03 00:20:02;;;;;;;2.42;1.60;;;13.40;46.10;;;;;;5052294;28;20032;-81
2022/05/03 00:22:29;;;;;;;2.37;1.60;;;13.40;46.30;;;;;;5070243;28;20305;-81
2022/05/03 00:24:55;;;;;;;2.47;1.75;;;13.40;46.50;;;;;;5033813;28;20036;-81
2022/05/03 00:27:28;;;;;;;2.38;1.60;;;13.30;46.50;;;;;;5049132;28;20082;-81
2022/05/03 00:29:56;;;;;;;2.80;1.80;;;13.30;47.40;;;;;;5047719;28;20036;-81
2022/05/03 00:32:23;;;;;;;2.78;1.63;;;13.30;46.70;;;;;;5047224;28;20068;-82
2022/05/03 00:34:50;;;;;;;2.70;1.70;;;13.20;46.80;;;;;;5043939;28;20051;-81
2022/05/03 00:37:16;;;;;;;2.55;1.52;;;13.10;47.00;;;;;;5020958;28;20090;-81
2022/05/03 00:39:43;;;;;;;3.47;1.60;;;13.10;47.00;;;;;;5058533;28;20036;-81
2022/05/03 00:42:29;;;;;;;2.63;1.77;;;13.10;47.10;;;;;;5049983;28;20483;-82
2022/05/03 00:45:16;;;;;;;2.22;1.60;;;13.10;48.80;;;;;;5059087;28;20029;-82
2022/05/03 00:47:52;;;;;;;2.40;1.57;;;13.00;48.90;;;;;;5050591;28;20039;-81
2022/05/03 00:50:40;;;;;;;2.47;1.70;;;13.00;48.30;;;;;;5040208;28;20036;-82
2022/05/03 00:53:05;;;;;;;2.55;1.55;;;12.90;47.80;;;;;;5041276;28;20034;-82
2022/05/03 00:56:02;;;;;;;2.40;1.70;;;12.90;47.50;;;;;;5054867;28;20036;-82
2022/05/03 00:58:42;;;;;;;2.47;1.52;;;12.90;48.90;;;;;;5029784;28;20236;-81
2022/05/03 01:01:34;;;;;;;2.03;1.45;;;12.80;48.60;;;;;;5052232;28;20051;-81
2022/05/03 01:04:29;;;;;;;2.55;1.63;;;12.80;48.10;;;;;;5010630;28;20350;-81
2022/05/03 01:06:58;;;;;;;2.72;1.77;;;12.80;49.60;;;;;;5020024;28;20135;-82
2022/05/03 01:10:08;;;;;;;2.00;1.47;;;12.70;47.90;;;;;;5036926;28;20657;-82
2022/05/03 01:12:52;;;;;;;2.55;1.45;;;12.70;48.70;;;;;;4985109;28;20654;-81
2022/05/03 01:15:21;;;;;;;2.25;1.63;;;12.70;49.00;;;;;;5011268;28;20049;-81
2022/05/03 01:18:18;;;;;;;2.25;1.63;;;12.60;48.40;;;;;;5019457;28;20515;-81
2022/05/03 01:20:52;;;;;;;2.80;1.70;;;12.60;49.60;;;;;;5069818;28;20040;-82
2022/05/03 01:23:50;;;;;;;2.20;1.63;;;12.50;49.00;;;;;;5022248;28;20040;-82
2022/05/03 01:26:22;;;;;;;2.65;1.48;;;12.50;49.70;;;;;;5039500;28;20090;-81
2022/05/03 01:29:22;;;;;;;2.03;1.38;;;12.40;49.30;;;;;;5050884;28;20072;-81
2022/05/03 01:31:55;;;;;;;2.35;1.40;;;12.40;50.50;;;;;;5046367;28;20037;-81
2022/05/03 01:34:24;;;;;;;2.70;1.58;;;12.40;49.10;;;;;;5026895;28;20127;-81
2022/05/03 01:37:27;;;;;;;2.17;1.50;;;12.30;49.10;;;;;;5067514;28;20035;-81
2022/05/03 01:40:23;;;;;;;2.10;1.58;;;12.30;50.60;;;;;;5052347;28;20055;-81
2022/05/03 01:43:04;;;;;;;2.00;1.40;;;12.30;50.70;;;;;;5037795;28;20028;-81
2022/05/03 01:46:00;;;;;;;2.42;1.50;;;12.20;49.70;;;;;;5025450;28;20071;-81
2022/05/03 01:51:57;;;;;;;2.70;1.70;;;12.10;50.50;;;;;;5041201;28;20091;-81
2022/05/03 01:54:46;;;;;;;1.80;1.45;;;12.10;51.30;;;;;;5028696;28;20129;-82
2022/05/03 01:57:38;;;;;;;2.78;1.65;;;12.00;51.10;;;;;;5061015;28;20040;-81
2022/05/03 02:00:07;;;;;;;2.15;1.48;;;11.90;51.10;;;;;;5033902;28;20040;-81
2022/05/03 02:02:36;;;;;;;2.63;1.90;;;11.90;49.70;;;;;;5040849;28;20344;-81
2022/05/03 02:05:06;;;;;;;2.57;1.70;;;11.90;50.80;;;;;;5049214;28;20038;-81
2022/05/03 02:08:01;;;;;;;3.03;1.75;;;11.90;50.30;;;;;;5051523;28;20197;-81
2022/05/03 02:10:48;;;;;;;2.45;1.67;;;11.80;50.20;;;;;;5052968;28;20399;-81
2022/05/03 02:13:29;;;;;;;2.50;1.70;;;11.80;50.60;;;;;;5051589;28;20116;-81
2022/05/03 02:16:03;;;;;;;2.17;1.48;;;11.80;51.20;;;;;;5034071;28;20045;-81
2022/05/03 02:19:14;;;;;;;3.03;1.63;;;11.70;50.50;;;;;;5039425;28;20474;-81
2022/05/03 02:21:57;;;;;;;2.50;1.60;;;11.70;52.30;;;;;;4990506;28;20121;-81
2022/05/03 02:24:38;;;;;;;3.70;1.63;;;11.70;51.30;;;;;;5020611;28;20609;-81
2022/05/03 02:27:10;;;;;;;2.42;1.55;;;11.60;51.10;;;;;;5044272;28;20051;-81
2022/05/03 02:29:50;;;;;;;3.10;2.00;;;11.60;50.90;;;;;;5069055;28;20062;-81
2022/05/03 02:32:27;;;;;;;2.67;1.60;;;11.60;51.80;;;;;;5054061;28;20028;-81
2022/05/03 02:35:04;;;;;;;2.50;1.60;;;11.50;51.50;;;;;;5036681;28;20067;-81
2022/05/03 02:37:37;;;;;;;2.47;1.73;;;11.50;51.50;;;;;;5039147;28;20036;-81
2022/05/03 02:40:09;;;;;;;3.13;1.80;;;11.50;51.30;;;;;;5053125;28;20093;-81
2022/05/03 02:42:36;;;;;;;3.22;2.00;;;11.40;51.10;;;;;;5042779;28;20033;-81
2022/05/03 02:45:04;;;;;;;2.30;1.73;;;11.40;51.00;;;;;;5052212;28;20034;-81
2022/05/03 02:47:41;;;;;;;3.15;1.77;;;11.40;51.20;;;;;;5026706;28;20149;-81
2022/05/03 02:50:12;;;;;;;2.55;1.63;;;11.30;51.70;;;;;;5062926;28;20067;-81
2022/05/03 02:52:48;;;;;;;3.10;1.85;;;11.30;51.10;;;;;;5051425;28;20105;-81
2022/05/03 02:55:25;;;;;;;3.20;2.00;;;11.30;51.80;;;;;;5023300;28;20115;-81
2022/05/03 02:57:59;;;;;;;2.43;1.70;;;11.20;51.80;;;;;;5053570;28;20037;-81
2022/05/03 03:03:47;;;;;;;2.50;1.70;;;11.20;51.40;;;;;;5053612;28;20540;-81
2022/05/03 03:06:21;;;;;;;2.45;1.55;;;11.20;52.30;;;;;;5034059;28;20062;-81
2022/05/03 03:08:49;;;;;;;1.83;1.55;;;11.10;52.00;;;;;;5031931;28;20031;-81
2022/05/03 03:11:26;;;;;;;3.00;1.60;;;11.10;51.40;;;;;;5034684;28;20036;-81
2022/05/03 03:14:07;;;;;;;2.53;1.70;;;11.00;52.70;;;;;;5049019;28;20465;-81
2022/05/03 03:16:37;;;;;;;3.10;1.90;;;11.00;51.60;;;;;;5047826;28;20626;-81
2022/05/03 03:19:25;;;;;;;2.75;1.80;;;11.00;51.80;;;;;;5038545;28;20037;-82
2022/05/03 03:21:55;;;;;;;2.28;1.52;;;10.90;53.00;;;;;;5076364;28;20123;-81
2022/05/03 03:24:22;;;;;;;3.30;1.80;;;10.90;52.20;;;;;;5030095;28;20448;-81
2022/05/03 03:26:51;;;;;;;3.15;1.70;;;10.80;52.60;;;;;;5034058;28;20477;-81
2022/05/03 03:29:18;;;;;;;2.28;1.63;;;10.80;52.10;;;;;;5056351;28;20037;-81
2022/05/03 03:31:46;;;;;;;3.03;2.05;;;10.80;52.10;;;;;;5054774;28;20033;-81
2022/05/03 03:34:13;;;;;;;2.83;1.75;;;10.80;52.20;;;;;;5054129;28;20392;-81
2022/05/03 03:36:41;;;;;;;2.80;1.77;;;10.80;52.30;;;;;;5045626;28;20392;-81
2022/05/03 03:39:07;;;;;;;2.65;1.80;;;10.70;52.40;;;;;;5042341;28;20028;-81
2022/05/03 03:41:33;;;;;;;2.95;1.80;;;10.70;52.40;;;;;;5042770;28;20063;-81
2022/05/03 03:43:58;;;;;;;3.47;2.07;;;10.70;52.40;;;;;;5059262;28;20036;-81
2022/05/03 03:46:24;;;;;;;3.10;1.75;;;10.70;53.20;;;;;;5059451;28;20071;-81
2022/05/03 03:48:50;;;;;;;3.07;1.90;;;10.60;52.40;;;;;;5051064;28;20037;-81
2022/05/03 03:51:15;;;;;;;2.67;1.80;;;10.60;52.40;;;;;;5049812;28;20720;-81
2022/05/03 03:53:42;;;;;;;3.03;1.83;;;10.60;52.60;;;;;;5041481;28;20036;-81
2022/05/03 03:56:09;;;;;;;4.10;2.00;;;10.60;52.70;;;;;;5042356;28;20033;-81
2022/05/03 03:58:35;;;;;;;2.80;1.95;;;10.50;52.70;;;;;;5039479;28;20290;-81
2022/05/03 04:01:01;;;;;;;3.97;2.00;;;10.50;52.60;;;;;;5047927;28;20089;-81
2022/05/03 04:03:27;;;;;;;3.03;1.90;;;10.50;52.60;;;;;;5031795;28;20437;-81
2022/05/03 04:05:53;;;;;;;3.60;1.85;;;10.40;52.80;;;;;;5050949;28;20021;-81
2022/05/03 04:08:18;;;;;;;2.83;1.92;;;10.40;52.80;;;;;;5073101;28;20222;-81
2022/05/03 04:10:45;;;;;;;2.80;1.70;;;10.30;52.90;;;;;;5021364;28;20389;-81
2022/05/03 04:13:13;;;;;;;3.08;2.00;;;10.30;53.00;;;;;;5067233;28;20449;-81
2022/05/03 04:15:39;;;;;;;3.20;2.00;;;10.30;53.20;;;;;;5054987;28;20375;-81
2022/05/03 04:18:08;;;;;;;3.13;2.22;;;10.20;53.10;;;;;;5042058;28;20481;-81
2022/05/03 04:20:35;;;;;;;3.60;2.20;;;10.20;53.20;;;;;;5030776;28;20059;-81
2022/05/03 04:23:01;;;;;;;4.03;2.43;;;10.20;53.40;;;;;;5079169;28;20024;-81
2022/05/03 04:25:27;;;;;;;4.00;2.55;;;10.10;53.30;;;;;;5054990;28;20228;-81
2022/05/03 04:27:52;;;;;;;3.20;2.10;;;10.10;53.40;;;;;;5024028;28;20539;-81
2022/05/03 04:30:18;;;;;;;3.30;2.10;;;10.00;53.50;;;;;;5046440;28;20092;-81
2022/05/03 04:32:43;;;;;;;4.28;2.30;;;10.00;53.60;;;;;;5035267;28;20461;-81
2022/05/03 04:35:09;;;;;;;3.53;2.33;;;10.00;53.70;;;;;;5050629;28;20043;-81
2022/05/03 04:37:35;;;;;;;4.10;2.20;;;10.00;53.90;;;;;;5031571;28;20044;-81
2022/05/03 04:40:01;;;;;;;3.80;2.20;;;10.00;53.90;;;;;;5054190;28;20321;-81
2022/05/03 04:42:26;;;;;;;4.03;2.13;;;10.00;54.00;;;;;;5017289;28;20029;-81
2022/05/03 04:44:52;;;;;;;3.00;2.00;;;10.00;54.00;;;;;;5037273;28;20057;-81
2022/05/03 04:47:18;;;;;;;4.35;2.47;;;10.00;54.10;;;;;;5060720;28;20039;-81
2022/05/03 04:49:43;;;;;;;3.27;2.03;;;10.00;54.10;;;;;;5056861;28;21500;-81
2022/05/03 04:52:09;;;;;;;3.38;2.30;;;10.00;54.20;;;;;;5048855;28;20024;-81
2022/05/03 04:54:36;;;;;;;3.53;2.07;;;9.90;54.40;;;;;;5035026;28;20071;-81
2022/05/03 04:57:04;;;;;;;3.20;2.17;;;10.00;54.50;;;;;;5057547;28;20269;-81
2022/05/03 04:59:31;;;;;;;2.88;2.00;;;9.90;54.40;;;;;;5036773;28;20055;-83
2022/05/03 05:01:56;;;;;;;3.72;2.30;;;10.00;54.70;;;;;;5036642;28;20078;-83
2022/05/03 05:04:23;;;;;;;3.77;2.10;;;10.00;54.60;;;;;;5033844;28;20037;-83
2022/05/03 05:06:48;;;;;;;3.20;2.10;;;10.00;54.90;;;;;;5017186;28;20269;-83
2022/05/03 05:09:14;;;;;;;3.00;1.90;;;10.00;54.90;;;;;;5053440;28;20040;-83
2022/05/03 05:11:39;;;;;;;3.20;2.10;;;10.00;55.00;;;;;;5037712;28;20037;-83
2022/05/03 05:14:05;;;;;;;3.37;2.20;;;10.00;55.00;;;;;;5037913;28;20033;-83
2022/05/03 05:16:31;;;;;;;3.70;2.22;;;10.10;55.10;;;;;;5054111;28;20036;-82
2022/05/03 05:18:56;;;;;;;4.10;2.03;;;10.10;55.10;;;;;;5045796;28;20024;-84
2022/05/03 05:21:22;;;;;;;3.63;2.30;;;10.10;55.10;;;;;;5027206;28;20024;-83
2022/05/03 05:23:48;;;;;;;4.53;2.13;;;10.10;55.20;;;;;;5025506;28;21042;-83
2022/05/03 05:26:13;;;;;;;4.00;2.28;;;10.20;55.20;;;;;;5058512;28;20078;-83
2022/05/03 05:28:39;;;;;;;3.50;1.97;;;10.20;55.20;;;;;;5035035;28;20237;-83
2022/05/03 05:31:04;;;;;;;2.80;1.87;;;10.30;55.30;;;;;;5034917;28;20033;-83
2022/05/03 05:33:30;;;;;;;2.92;2.00;;;10.30;55.30;;;;;;5046904;28;20029;-83
2022/05/03 05:35:56;;;;;;;3.40;1.93;;;10.40;55.40;;;;;;5040920;28;20036;-83
2022/05/03 05:38:22;;;;;;;3.40;2.03;;;10.40;55.30;;;;;;5044192;28;20086;-83
2022/05/03 05:40:48;;;;;;;3.28;2.30;;;10.40;55.40;;;;;;5039254;28;20066;-83
2022/05/03 05:43:14;;;;;;;3.40;2.00;;;10.40;55.40;;;;;;5057154;28;20603;-83
2022/05/03 05:45:40;;;;;;;3.95;2.30;;;10.50;55.60;;;;;;5012294;28;20053;-83
2022/05/03 05:48:08;;;;;;;3.50;2.20;;;10.60;55.70;;;;;;5030876;28;20040;-83
2022/05/03 05:50:34;;;;;;;3.90;2.33;;;10.70;55.80;;;;;;5050793;28;20028;-83
2022/05/03 05:55:44;;;;;;;5.70;2.10;;;10.80;55.80;;;;;;5059464;28;20037;-83
2022/05/03 05:58:09;;;;;;;3.60;2.30;;;10.80;55.80;;;;;;5038529;28;20020;-83
2022/05/03 06:00:35;;;;;;;3.07;2.07;;;10.90;55.90;;;;;;5038060;28;20086;-83
2022/05/03 06:03:01;;;;;;;3.42;2.35;;;11.00;55.90;;;;;;5048739;28;20037;-83
2022/05/03 06:05:27;;;;;;;3.28;2.30;;;11.00;56.00;;;;;;5033770;28;20324;-84
2022/05/03 06:07:53;;;;;;;3.60;2.37;;;11.10;56.00;;;;;;5039899;28;20406;-83
2022/05/03 06:10:20;;;;;;;3.72;2.42;;;11.20;56.10;;;;;;5017787;28;20134;-83
2022/05/03 06:12:47;;;;;;;3.78;2.30;;;11.30;56.20;;;;;;5040128;28;20039;-84
2022/05/03 06:15:13;;;;;;;3.95;2.38;;;11.50;56.30;;;;;;5029048;28;20094;-83
2022/05/03 06:17:40;;;;;;;4.47;2.53;;;11.60;56.30;;;;;;5051279;28;20218;-83
2022/05/03 06:20:07;;;;;;;4.15;2.47;;;11.70;56.20;;;;;;5051481;28;20059;-83
2022/05/03 06:22:33;;;;;;;4.85;2.58;;;11.80;55.60;;;;;;5046865;28;20052;-83
2022/05/03 06:24:59;;;;;;;4.43;2.60;;;11.90;55.60;;;;;;5028287;28;20048;-83
2022/05/03 06:27:24;;;;;;;3.42;2.38;;;12.00;55.20;;;;;;5057826;28;20668;-83
2022/05/03 06:29:50;;;;;;;3.60;2.20;;;12.10;55.30;;;;;;5040408;28;20127;-83
2022/05/03 06:32:16;;;;;;;3.20;2.20;;;12.20;55.40;;;;;;5012639;28;20261;-83
2022/05/03 06:34:41;;;;;;;3.97;2.17;;;12.20;55.30;;;;;;5036802;28;20455;-83
2022/05/03 06:37:07;;;;;;;3.92;2.08;;;12.30;55.30;;;;;;5029618;28;20043;-83
2022/05/03 06:39:36;;;;;;;4.23;2.33;;;12.40;55.10;;;;;;5044120;28;20040;-83
2022/05/03 06:42:05;;;;;;;2.70;1.93;;;12.50;55.30;;;;;;5050523;28;20282;-83
2022/05/03 06:44:31;;;;;;;4.05;2.22;;;12.60;55.20;;;;;;5065741;28;20120;-84
2022/05/03 06:46:57;;;;;;;4.68;2.30;;;12.70;55.10;;;;;;5030859;28;20425;-83
2022/05/03 06:49:23;;;;;;;3.33;2.07;;;12.80;55.10;;;;;;5031857;28;20162;-84
2022/05/03 06:51:49;;;;;;;4.03;2.20;;;12.90;55.00;;;;;;5043911;28;20048;-84
2022/05/03 06:54:15;;;;;;;3.75;2.13;;;13.10;54.90;;;;;;5050460;28;20029;-83
2022/05/03 06:56:40;;;;;;;3.70;2.37;;;13.20;54.70;;;;;;5054122;28;20059;-83
2022/05/03 06:59:09;;;;;;;3.73;2.30;;;13.30;54.40;;;;;;5018527;28;20459;-84
2022/05/03 07:01:35;;;;;;;3.45;2.15;;;13.40;54.40;;;;;;5043949;28;20028;-83
2022/05/03 07:04:01;;;;;;;3.88;2.30;;;13.50;54.40;;;;;;5046495;28;20250;-83
2022/05/03 07:06:27;;;;;;;4.13;2.45;;;13.60;54.30;;;;;;5061339;28;20040;-83
2022/05/03 07:08:52;;;;;;;3.53;2.13;;;13.80;54.20;;;;;;5041166;28;20037;-83
2022/05/03 07:11:18;;;;;;;2.87;1.90;;;13.90;54.00;;;;;;5064688;28;20380;-83
2022/05/03 07:13:44;;;;;;;2.78;1.85;;;14.00;54.00;;;;;;5046488;28;20067;-85
2022/05/03 07:16:10;;;;;;;2.87;1.90;;;14.10;53.90;;;;;;5042107;28;20272;-83
2022/05/03 07:24:05;;;;;;;4.05;2.20;;;14.60;53.60;;;;;;5043005;28;20153;-84
2022/05/03 07:26:30;;;;;;;4.40;2.27;;;14.80;53.70;;;;;;5043979;28;20122;-83
2022/05/03 07:28:56;;;;;;;3.40;2.00;;;15.00;53.60;;;;;;5031529;28;20024;-83
2022/05/03 07:31:23;;;;;;;3.70;2.30;;;15.20;53.40;;;;;;5036802;28;20060;-84
2022/05/03 07:33:49;;;;;;;5.07;2.20;;;15.40;53.10;;;;;;5017908;28;20067;-84
2022/05/03 07:36:18;;;;;;;3.33;1.88;;;15.60;52.50;;;;;;5051962;28;20522;-84
2022/05/03 07:38:43;;;;;;;2.72;1.73;;;15.70;52.40;;;;;;5050484;28;20045;-83
2022/05/03 07:41:10;;;;;;;3.50;2.20;;;15.90;52.50;;;;;;5060364;28;20145;-83
2022/05/03 07:43:35;;;;;;;3.58;1.88;;;16.20;52.90;;;;;;5036974;28;20377;-84
2022/05/03 07:46:02;;;;;;;4.15;2.10;;;16.50;53.60;;;;;;5062721;28;20430;-83
2022/05/03 07:48:28;;;;;;;3.47;2.00;;;16.80;53.60;;;;;;5044674;28;20033;-84
2022/05/03 07:50:54;;;;;;;3.75;2.28;;;17.20;53.30;;;;;;5042602;28;20036;-84
2022/05/03 07:53:20;;;;;;;3.65;2.10;;;17.60;52.80;;;;;;5036890;28;20095;-83
2022/05/03 07:55:47;;;;;;;4.70;2.20;;;17.90;52.60;;;;;;5067170;28;20056;-84
2022/05/03 07:58:14;;;;;;;3.60;1.98;;;18.30;52.70;;;;;;5027777;28;20059;-83
2022/05/03 08:00:39;;;;;;;3.87;2.00;;;18.80;52.70;;;;;;5060690;28;20300;-83
2022/05/03 08:03:05;;;;;;;4.00;2.20;;;19.20;52.30;;;;;;5062584;28;20534;-83
2022/05/03 08:05:31;;;;;;;3.23;2.40;;;19.60;51.30;;;;;;5042879;28;20071;-82
2022/05/03 08:07:56;;;;;;;3.25;2.30;;;19.90;51.10;;;;;;5060847;28;20056;-82
2022/05/03 08:10:22;;;;;;;4.10;2.50;;;20.30;51.10;;;;;;5056490;28;20028;-82
2022/05/03 08:12:51;;;;;;;3.53;2.38;;;20.70;51.20;;;;;;5037123;28;20032;-82
2022/05/03 08:15:21;;;;;;;3.58;2.30;;;21.10;51.40;;;;;;5027646;28;20056;-82
2022/05/03 08:17:47;;;;;;;4.30;2.50;;;21.60;50.50;;;;;;5076383;28;20395;-81
2022/05/03 08:20:13;;;;;;;4.13;2.33;;;22.00;50.30;;;;;;5010469;28;20493;-81
2022/05/03 08:22:39;;;;;;;3.08;2.35;;;22.50;49.70;;;;;;5048808;28;20032;-84
2022/05/03 08:25:06;;;;;;;3.50;2.67;;;22.90;49.10;;;;;;5055006;28;20033;-82
2022/05/03 08:27:33;;;;;;;3.38;2.53;;;23.30;48.40;;;;;;5039532;28;20040;-82
2022/05/03 08:29:59;;;;;;;4.13;2.40;;;23.70;48.20;;;;;;5038424;28;20036;-82
2022/05/03 08:32:25;;;;;;;6.10;2.63;;;24.20;48.10;;;;;;5039857;28;20579;-82
2022/05/03 08:34:51;;;;;;;3.53;2.85;;;24.60;47.80;;;;;;5021609;28;20033;-82
2022/05/03 08:42:45;;;;;;;2.87;2.40;;;25.80;45.50;;;;;;5061029;28;20040;-83
2022/05/03 08:45:11;;;;;;;3.20;2.40;;;26.30;44.80;;;;;;5025022;28;20036;-83
2022/05/03 08:47:37;;;;;;;3.47;2.80;;;26.50;44.20;;;;;;5055320;28;20476;-82
2022/05/03 08:50:06;;;;;;;3.17;2.65;;;26.80;43.20;;;;;;5059240;28;20036;-82
2022/05/03 08:52:58;;;;;;;3.83;2.50;;;27.10;43.10;;;;;;5032193;28;20123;-82
2022/05/03 08:55:24;;;;;;;3.63;2.90;;;27.40;40.60;;;;;;5041143;28;20028;-82
2022/05/03 08:57:50;;;;;;;3.35;2.47;;;27.50;41.40;;;;;;5042802;28;20049;-83
2022/05/03 09:00:18;;;;;;;2.97;2.60;;;27.70;40.70;;;;;;5027439;28;20021;-83
2022/05/03 09:02:46;;;;;;;3.83;2.78;;;27.80;40.10;;;;;;5065911;28;20553;-82
2022/05/03 09:05:12;;;;;;;3.43;2.60;;;28.00;39.70;;;;;;5036813;28;20033;-82
2022/05/03 09:07:37;;;;;;;3.50;2.53;;;28.10;39.70;;;;;;5023421;28;20044;-82
2022/05/03 09:10:24;;;;;;;3.42;2.60;;;28.20;39.00;;;;;;5044693;28;20128;-82
2022/05/03 09:12:51;;;;;;;3.97;2.40;;;28.30;36.70;;;;;;5030750;28;20040;-82
2022/05/03 09:15:31;;;;;;;3.63;2.30;;;28.40;38.30;;;;;;5021184;28;20036;-81
2022/05/03 09:17:57;;;;;;;3.22;2.40;;;28.50;35.40;;;;;;5041295;28;20033;-82
2022/05/03 09:26:19;;;;;;;3.77;2.50;;;29.00;37.90;;;;;;5047286;28;20037;-82
2022/05/03 09:28:48;;;;;;;2.42;2.03;;;29.20;36.00;;;;;;5023646;28;20044;-85
2022/05/03 09:31:34;;;;;;;2.20;1.65;;;29.50;37.70;;;;;;5038940;28;20033;-83
2022/05/03 09:34:17;;;;;;;2.65;1.90;;;29.70;36.80;;;;;;5036230;28;20317;-83
2022/05/03 09:36:45;;;;;;;3.00;2.10;;;29.90;36.30;;;;;;5013331;28;20033;-83
2022/05/03 09:39:24;;;;;;;2.47;1.93;;;30.10;36.00;;;;;;5058791;28;20049;-84
2022/05/03 09:42:25;;;;;;;2.72;2.15;;;30.20;33.60;;;;;;5047820;28;20036;-83
2022/05/03 09:44:54;;;;;;;2.40;2.20;;;30.40;33.60;;;;;;5023348;28;20072;-82
2022/05/03 09:47:28;;;;;;;4.55;2.10;;;30.40;34.50;;;;;;5007951;28;20033;-83
2022/05/03 09:49:54;;;;;;;3.88;2.38;;;30.60;33.70;;;;;;5054439;28;20047;-83
2022/05/03 09:52:27;;;;;;;2.90;2.10;;;30.80;34.40;;;;;;5011559;28;20467;-84
2022/05/03 09:54:58;;;;;;;2.47;1.90;;;31.00;33.70;;;;;;5044927;28;20093;-83
2022/05/03 09:57:25;;;;;;;2.33;1.90;;;31.20;33.60;;;;;;5039751;28;20044;-82
2022/05/03 09:59:53;;;;;;;2.55;2.35;;;31.20;32.90;;;;;;5040691;28;20127;-82
2022/05/03 10:02:23;;;;;;;2.45;2.20;;;31.30;32.50;;;;;;5037965;28;20556;-83
2022/05/03 10:04:56;;;;;;;2.80;2.20;;;31.30;32.40;;;;;;5052327;28;20484;-82
2022/05/03 10:07:22;;;;;;;2.47;2.17;;;31.40;32.60;;;;;;5029111;28;20034;-85
2022/05/03 10:09:49;;;;;;;2.60;2.30;;;31.50;32.70;;;;;;5052653;28;20532;-83
2022/05/03 10:12:15;;;;;;;2.65;2.13;;;31.60;32.50;;;;;;5047173;28;20052;-82
2022/05/03 10:14:42;;;;;;;2.35;2.13;;;31.60;31.80;;;;;;5050093;28;20084;-83
2022/05/03 10:20:38;;;;;;;3.33;2.17;;;31.90;30.50;;;;;;5071539;28;20068;-83
2022/05/03 10:23:02;;;;;;;2.65;2.30;;;32.00;30.80;;;;;;5035230;28;20097;-82
2022/05/03 10:26:05;;;;;;;3.30;2.40;;;32.10;31.30;;;;;;5045319;28;20110;-83
2022/05/03 10:28:59;;;;;;;2.75;2.20;;;32.10;29.70;;;;;;5006933;28;20182;-83
2022/05/03 10:31:24;;;;;;;2.87;2.10;;;32.20;29.90;;;;;;5040531;28;20036;-83
2022/05/03 10:33:50;;;;;;;2.85;1.95;;;32.30;30.50;;;;;;5029010;28;20066;-83
2022/05/03 10:36:35;;;;;;;2.00;1.80;;;32.40;30.40;;;;;;5021699;28;20029;-82
2022/05/03 10:39:16;;;;;;;1.80;1.70;;;32.50;28.10;;;;;;5049579;28;20123;-82
2022/05/03 10:41:53;;;;;;;1.80;1.60;;;32.60;29.30;;;;;;5066551;28;20090;-83
2022/05/03 10:44:43;;;;;;;2.13;1.92;;;32.70;29.30;;;;;;5048351;28;20495;-83
2022/05/03 10:47:13;;;;;;;2.80;2.28;;;32.70;28.20;;;;;;5054014;28;20052;-82
2022/05/03 10:50:10;;;;;;;3.00;2.25;;;32.80;28.90;;;;;;5065111;28;20028;-83
2022/05/03 10:52:36;;;;;;;3.17;2.10;;;32.90;28.40;;;;;;5031162;28;20443;-84
2022/05/03 10:55:09;;;;;;;2.40;1.97;;;32.90;29.50;;;;;;5062468;28;20033;-83
2022/05/03 10:58:12;;;;;;;2.45;2.00;;;32.90;28.40;;;;;;5050482;28;20028;-83
2022/05/03 11:01:18;;;;;;;2.53;1.88;;;32.70;27.60;;;;;;5059518;28;20107;-84
2022/05/03 11:03:47;;;;;;;2.77;1.87;;;32.40;27.90;;;;;;5052455;28;20064;-84
2022/05/03 11:06:18;;;;;;;2.20;1.90;;;32.40;28.70;;;;;;5057171;28;20059;-83
2022/05/03 11:11:43;;;;;;;1.95;1.75;;;32.70;28.50;;;;;;5058736;28;20505;-83
2022/05/03 11:14:18;;;;;;;2.28;1.70;;;32.90;28.20;;;;;;5033284;28;20134;-83
2022/05/03 11:16:47;;;;;;;2.30;1.80;;;32.90;28.30;;;;;;5042319;28;20075;-83
2022/05/03 11:19:18;;;;;;;2.63;1.98;;;32.90;27.70;;;;;;5040359;28;20031;-83
2022/05/03 11:21:45;;;;;;;2.42;1.90;;;32.70;27.00;;;;;;5052265;28;20048;-83
2022/05/03 11:24:24;;;;;;;2.60;2.13;;;32.30;27.00;;;;;;5040670;28;20037;-83
2022/05/03 11:26:53;;;;;;;2.72;1.92;;;32.00;26.90;;;;;;5053359;28;20032;-82
2022/05/03 11:29:19;;;;;;;2.43;1.90;;;31.90;28.10;;;;;;5039457;28;20127;-83
2022/05/03 11:31:50;;;;;;;3.42;1.70;;;31.90;28.10;;;;;;5057283;28;20123;-84
2022/05/03 11:34:17;;;;;;;2.25;2.00;;;32.00;28.60;;;;;;5074163;28;20040;-83
2022/05/03 11:36:44;;;;;;;2.20;1.73;;;32.20;28.40;;;;;;5034826;28;20056;-84
2022/05/03 11:39:10;;;;;;;2.58;2.28;;;32.40;28.30;;;;;;5055765;28;20037;-83
2022/05/03 11:41:37;;;;;;;2.33;2.13;;;32.60;28.60;;;;;;5058047;28;20100;-83
2022/05/03 11:44:03;;;;;;;3.00;2.08;;;32.90;28.40;;;;;;5060924;28;20127;-83
2022/05/03 11:46:29;;;;;;;2.60;2.20;;;33.00;27.70;;;;;;5040708;28;20122;-83
2022/05/03 11:49:02;;;;;;;2.75;2.00;;;32.90;26.90;;;;;;5061737;28;20439;-82
2022/05/03 11:57:20;;;;;;;2.25;2.05;;;31.80;26.30;;;;;;5058099;28;20484;-84
2022/05/03 11:59:47;;;;;;;3.97;2.20;;;31.40;26.30;;;;;;5044336;28;20052;-83
2022/05/03 12:02:21;;;;;;;2.83;1.88;;;31.10;26.50;;;;;;5073606;28;20186;-82
2022/05/03 12:05:11;;;;;;;2.35;1.80;;;30.70;26.80;;;;;;5060111;28;20071;-83
2022/05/03 12:07:38;;;;;;;2.77;2.07;;;30.60;27.50;;;;;;5051916;28;20719;-83
2022/05/03 12:10:37;;;;;;;2.60;2.13;;;30.60;28.00;;;;;;5038900;28;20040;-82
2022/05/03 12:13:16;;;;;;;3.38;2.15;;;30.60;27.40;;;;;;5033358;28;20109;-83
2022/05/03 12:15:48;;;;;;;2.88;2.10;;;30.70;27.40;;;;;;5033372;28;20128;-83
2022/05/03 12:18:38;;;;;;;2.92;2.08;;;30.60;27.30;;;;;;5029112;28;20123;-83
2022/05/03 12:21:15;;;;;;;3.13;2.10;;;30.40;27.50;;;;;;5026040;28;20411;-83
2022/05/03 12:23:50;;;;;;;2.85;2.10;;;30.20;27.60;;;;;;5062848;28;20256;-82
2022/05/03 12:26:32;;;;;;;2.78;1.88;;;30.10;27.70;;;;;;5036163;28;20245;-82
2022/05/03 12:29:00;;;;;;;2.17;1.80;;;30.20;28.00;;;;;;5049665;28;20064;-82
2022/05/03 12:31:35;;;;;;;2.78;2.00;;;30.30;28.50;;;;;;5038968;28;20383;-82
2022/05/03 12:34:02;;;;;;;3.13;1.83;;;30.60;28.60;;;;;;5034949;28;20037;-82
2022/05/03 12:36:42;;;;;;;2.30;1.90;;;30.90;29.20;;;;;;5035660;28;20501;-83
2022/05/03 12:39:16;;;;;;;2.80;2.03;;;31.40;28.90;;;;;;5071956;28;20502;-83
2022/05/03 12:41:44;;;;;;;2.33;2.05;;;31.70;28.60;;;;;;5047129;28;20060;-83
2022/05/03 12:44:15;;;;;;;2.50;2.15;;;31.90;28.10;;;;;;5051905;28;20056;-82
2022/05/03 12:46:42;;;;;;;3.23;2.30;;;31.80;26.90;;;;;;5028948;28;20409;-84
2022/05/03 12:49:14;;;;;;;2.58;2.03;;;31.50;26.60;;;;;;5058480;28;20033;-82
2022/05/03 12:51:46;;;;;;;3.08;2.20;;;31.10;26.50;;;;;;5045564;28;20372;-82
2022/05/03 12:54:12;;;;;;;3.67;2.08;;;30.70;26.60;;;;;;5073256;28;20033;-82
2022/05/03 12:59:24;;;;;;;3.07;2.30;;;29.90;27.00;;;;;;5025142;28;20548;-81
2022/05/03 13:01:51;;;;;;;3.33;2.20;;;29.60;27.10;;;;;;5026139;28;20037;-82
2022/05/03 13:04:20;;;;;;;4.35;2.33;;;29.30;27.30;;;;;;5051770;28;20028;-82
2022/05/03 13:06:47;;;;;;;3.10;2.30;;;29.00;27.70;;;;;;5041933;28;20028;-81
2022/05/03 13:09:13;;;;;;;2.97;2.40;;;28.90;28.00;;;;;;5025703;28;20081;-82
2022/05/03 13:11:39;;;;;;;5.43;2.33;;;28.80;28.10;;;;;;5058644;28;20045;-82
2022/05/03 13:14:09;;;;;;;4.03;2.90;;;28.70;28.30;;;;;;5022877;28;20029;-83
2022/05/03 13:16:36;;;;;;;3.03;2.47;;;28.60;28.40;;;;;;5032072;28;20363;-82
2022/05/03 13:19:03;;;;;;;3.47;2.45;;;28.60;28.60;;;;;;5033407;28;20509;-83
2022/05/03 13:21:35;;;;;;;3.13;2.63;;;28.60;28.70;;;;;;5037144;28;20109;-83
2022/05/03 13:24:02;;;;;;;2.77;2.40;;;28.50;28.70;;;;;;5053815;28;20477;-83
2022/05/03 13:26:28;;;;;;;2.80;2.30;;;28.70;29.10;;;;;;5039139;28;20215;-81
2022/05/03 13:28:53;;;;;;;2.38;2.17;;;28.80;29.40;;;;;;5012830;28;20036;-83
2022/05/03 13:31:19;;;;;;;2.63;2.00;;;29.00;29.70;;;;;;5022785;28;20062;-81
2022/05/03 13:33:45;;;;;;;2.20;2.00;;;29.20;29.80;;;;;;5057345;28;20033;-81
2022/05/03 13:41:39;;;;;;;2.47;2.15;;;30.30;29.60;;;;;;5052203;28;20036;-82
2022/05/03 13:44:05;;;;;;;2.60;2.00;;;30.70;29.30;;;;;;5033664;28;20481;-81
2022/05/03 13:46:30;;;;;;;2.35;2.10;;;30.90;29.10;;;;;;5052941;28;20128;-81
2022/05/03 13:48:56;;;;;;;3.30;2.37;;;31.20;29.30;;;;;;5065801;28;20404;-82
2022/05/03 13:51:22;;;;;;;3.15;2.58;;;31.40;29.20;;;;;;5054108;28;20296;-82
2022/05/03 13:53:48;;;;;;;3.73;2.63;;;31.50;28.90;;;;;;5054452;28;20081;-82
2022/05/03 13:56:16;;;;;;;3.50;3.10;;;31.70;29.00;;;;;;5038060;28;20258;-83